La Aurora Airport
MGGT : now visible

Airfield :











YOU CAN JOIN US ON...

 
LOGIN :

Register | Disclaimer

   EN    FR    IT 

 









Legend :    VFR   Marginal VFR   IFR   Intensive IFR   Very Intensive IFR
Visi :
Ceiling :
>= 8 km
>= 3000ft
5 to 8 km
1000 to 3000 ft
1500m to 5 km
500 to 1000 ft
800 to 1500m
200 to 500 ft
< 800m
< 200 ft
Symbols :   Thunderstorms  Fog  Heavy snow  Heavy precipitations  Wind > 20 kt






- Airport Elevation : 4952 ft
- IATA code : GUA


MGGT - La Aurora

CURRENT METAR :
  • 240400Z 03012KT 9999 FEW014 16/15 Q1027 A3033

EXPIRED METARs :
  • 240300Z 03012KT CAVOK 18/13 Q1026 A3030

TAF MGGT
Valid from the 24 at 00:00 until the 25 at 00:00 UTC


232300Z 2400/2424 36010KT 9999 FEW016 TX26/2420Z TN13/2412Z
BECMG 2402/2404 CAVOK
BECMG 2410/2412 SCT014
BECMG 2415/2417 18010KT SCT018
TEMPO 2419/2424 SCT020TCU



MET'MAP, your aeronautical weather chart ! - Copyright ORBIFLY December 2007 - Disclaimer

ORBIFLY MET'MAP TEAM :

Programming & Development : Alexandra Zaïnal
Concept & original design : Baudouin d'Aumeries
Assistance for programming : Marc-Olivier Méhu
Technical & hardware support : Manuel Goepfert

Contact : metmap@orbifly.com




SOURCES & CREDITS :

   NOAA       Earth
Advisory